x

West Oregon - 275nm West Of Coos Bay, Or (46002) Wave Buoy

1:50pm - Mon 4th May 2015 All times are UTC.

  • Sig Wave height 6.6ft
  • Peak Period 16s
  • Average Period 7s
  • Wind
    20mph, 25mph gusts
  • Sea Temp 55°f
  • Air Temp 55°f
  • Sea Pressure 1016.7mb

More Historic Weather Station data

Upgrade to MSW Pro to gain access to the past 30 days of data for over 8000 Wavebouys and Weather Stations around the globe.

Join Pro

Comparision Forecast

View Surf forecast
   
Mon 05/04 1:50pm 6.5ft 16s 7s 20 25 mph 1016.7mb 55f 55f
12:50pm 5.5ft 16s 5s 16 20 mph 1016.5mb 55f 53f
11:50am 5ft 17s 5s 16 22 mph 1016.1mb 55f 55f
10:50am 4.5ft 21s 6s 16 20 mph 1016.5mb 55f 55f
9:50am 5ft 21s 7s 13 16 mph 1016.7mb 55f 54f
8:50am 4.5ft 17s 6s 16 18 mph 1017.2mb 55f 54f
7:50am 5ft 24s 7s 13 18 mph 1017.4mb 55f 54f
6:50am 4.5ft 11s 7s 11 13 mph 1017.7mb 55f 54f
5:50am 5ft 24s 7s 11 13 mph 1018mb 55f 54f
4:50am 5ft 8s 7s 11 16 mph 1018.1mb 55f 54f
3:50am 5ft 10s 7s 9 11 mph 1018.1mb 55f 53f
2:50am 5ft 9s 7s 2 7 mph 1018.2mb 55f 53f
1:50am 5ft 11s 7s 2 4 mph 1018.6mb 55f 53f
12:50am 6ft 10s 7s 7 9 mph 1019mb 55f 53f
Sun 05/03 11:50pm 5.5ft 9s 7s 9 11 mph 1019.4mb 55f 53f
10:50pm 6ft 9s 7s 9 11 mph 1019.9mb 55f 52f
9:50pm 6ft 10s 7s 9 13 mph 1020.1mb 55f 52f
8:50pm 6ft 10s 7s 9 11 mph 1020.3mb 55f 52f
7:50pm 5.5ft 10s 7s 9 13 mph 1020.5mb 55f 52f
6:50pm 5.5ft 8s 7s 11 13 mph 1020.6mb 55f 52f
5:50pm 6.5ft 11s 7s 9 13 mph 1020.6mb 55f 52f
4:50pm 6ft 11s 7s 11 13 mph 1020.6mb 55f 51f
3:50pm 6ft 11s 7s 9 13 mph 1020.6mb 55f 51f
2:50pm 6.5ft 11s 7s 11 13 mph 1020.4mb 55f 52f
1:50pm 6.5ft 11s 6s 11 16 mph 1020.2mb 55f 52f
12:50pm 6ft 11s 6s 13 20 mph 1020.1mb 55f 52f
11:50am 7ft 12s 7s 13 16 mph 1020.3mb 55f 52f
10:50am 7ft 10s 6s 11 18 mph 1020.5mb 55f 52f
9:50am 7ft 11s 6s 13 18 mph 1020.9mb 55f 52f
8:50am 7.5ft 10s 7s 11 16 mph 1021.3mb 55f 52f
7:50am 7ft 11s 7s 13 20 mph 1021.5mb 55f 52f
6:50am 8ft 11s 7s 13 20 mph 1021.9mb 55f 52f
5:50am 7ft 11s 7s 13 18 mph 1022.2mb 55f 52f
4:50am 7ft 11s 7s 16 20 mph 1021.9mb 55f 53f
3:50am 7ft 11s 6s 16 20 mph 1021.6mb 55f 53f
2:50am 7ft 12s 6s 16 22 mph 1021.4mb 55f 53f
1:50am 7ft 12s 6s 20 22 mph 1021.7mb 55f 53f
12:50am 7ft 11s 6s 18 20 mph 1022mb 55f 53f
Sat 05/02 11:50pm 7ft 13s 6s 18 20 mph 1022.2mb 55f 53f
10:50pm 7ft 11s 6s 16 20 mph 1022.7mb 55f 53f
9:50pm 7ft 7s 6s 16 20 mph 1022.8mb 55f 53f
8:50pm 7.5ft 11s 6s 16 20 mph 1023mb 55f 52f
7:50pm 8ft 13s 7s 18 20 mph 1023.2mb 55f 53f
6:50pm 8ft 10s 7s 18 22 mph 1023.2mb 55f 53f
5:50pm 8.5ft 11s 6s 18 22 mph 1023.2mb 55f 52f
4:50pm 8ft 11s 7s 22 27 mph 1023.1mb 55f 52f
3:50pm 7.5ft 10s 6s 20 22 mph 1023mb 55f 53f
2:50pm 8ft 11s 6s 18 22 mph 1022.9mb 55f 53f
1:50pm 7ft 7s 6s 18 22 mph 1022.5mb 55f 52f
12:50pm 7.5ft 7s 6s 18 22 mph 1022.6mb 55f 52f
11:50am 7.5ft 10s 6s 20 25 mph 1022.7mb 55f 52f
10:50am 7ft 6s 6s 20 25 mph 1022.6mb 55f 53f
9:50am 7ft 11s 6s 20 25 mph 1022.8mb 55f 53f
8:50am 7ft 11s 6s 22 27 mph 1023.1mb 55f 53f
7:50am 7ft 11s 6s 18 20 mph 1023.3mb 55f 53f
6:50am 7.5ft 10s 6s 20 25 mph 1023.4mb 55f 53f
5:50am 7.5ft 11s 6s 20 27 mph 1023.4mb 55f 53f
4:50am 7.5ft 11s 6s 20 25 mph 1022.9mb 55f 53f
3:50am 7ft 11s 6s 20 25 mph 1022.5mb 55f 54f
2:50am 7ft 10s 6s 22 25 mph 1022.2mb 56f 54f
1:50am 7ft 10s 6s 22 27 mph 1022.2mb 56f 54f
12:50am 7ft 11s 6s 20 27 mph 1022.5mb 56f 54f
Fri 05/01 11:50pm 7ft 10s 6s 20 22 mph 1022.6mb 56f 54f
10:50pm 7ft 10s 6s 20 25 mph 1023mb 56f 54f
9:50pm 7ft 9s 6s 20 22 mph 1023.1mb 56f 53f
8:50pm 6.5ft 9s 6s 20 22 mph 1023mb 56f 53f
7:50pm 6ft 10s 6s 16 20 mph 1023.3mb 56f 53f
6:50pm 6ft 10s 6s 16 20 mph 1023.1mb 55f 52f
5:50pm 6ft 8s 6s 18 20 mph 1022.7mb 55f 54f
4:50pm 6.5ft 10s 6s 18 22 mph 1022.7mb 55f 53f
3:50pm 6.5ft 10s 6s 18 22 mph 1022.6mb 55f 53f
2:50pm 6ft 10s 6s 16 20 mph 1022.4mb 55f 53f
1:50pm 6ft 11s 6s 18 22 mph 1022.1mb 55f 54f
12:50pm  -   -   -  18 22 mph 1022mb 55f 54f
11:50am 6ft 10s 6s 18 22 mph 1022.3mb 55f 52f
10:50am 6ft 9s 6s 20 25 mph 1022.4mb 55f 54f
9:50am 7ft 9s 6s 18 22 mph 1022.7mb 56f 53f
8:50am 6ft 9s 6s 18 20 mph 1023.1mb 56f 54f
7:50am 7ft 10s 7s 13 18 mph 1023.4mb 56f 55f
6:50am 6ft 9s 7s 16 18 mph 1023.7mb 56f 55f
5:50am 6ft 9s 6s 11 13 mph 1024mb 56f 55f
4:50am 6ft 9s 6s 13 16 mph 1023.9mb 56f 55f
3:50am 6ft 9s 6s 13 16 mph 1023.8mb 56f 55f
2:50am 5.5ft 9s 6s 13 16 mph 1024mb 56f 55f
1:50am 6ft 10s 6s 11 16 mph 1024.6mb 56f 56f
12:50am 5.5ft 10s 6s 16 20 mph 1025.2mb 56f 56f
Thu 04/30 11:50pm 5.5ft 11s 7s 13 18 mph 1025.7mb 56f 56f
10:50pm 5.5ft 11s 7s 11 16 mph 1026.3mb 56f 55f
9:50pm 5.5ft 11s 7s 11 13 mph 1027mb 56f 55f
8:50pm 6ft 11s 7s 11 13 mph 1027.5mb 56f 55f
7:50pm 6ft 11s 7s 9 13 mph 1028.1mb 56f 54f
6:50pm 6ft 11s 7s 11 13 mph 1028.4mb 56f 54f
5:50pm 6ft 9s 7s 11 13 mph 1028.3mb 55f 54f
4:50pm 6.5ft 11s 7s 9 13 mph 1028.3mb 55f 54f
3:50pm 7ft 9s 8s 9 13 mph 1028.4mb 55f 54f
2:50pm 7ft 10s 7s 13 16 mph 1028.2mb 55f 54f